Time;durP1;ratioP1;P1;durP2;ratioP2;P2;SDS_P1;SDS_P2;PMS_P1;PMS_P2;Temp;Humidity;BMP_temperature;BMP_pressure;BME280_temperature;BME280_humidity;BME280_pressure;Samples;Min_cycle;Max_cycle;Signal;HPM_P1;HPM_P2
2022/08/30 00:01:30;;;;;;;9.45;8.55;;;;;;;21.30;56.59;95089.25;5008312;28;20218;-71
2022/08/30 00:03:57;;;;;;;11.90;9.32;;;;;;;21.37;56.50;95087.34;5009757;28;20897;-72
2022/08/30 00:06:23;;;;;;;10.35;8.85;;;;;;;21.35;56.54;95082.19;5005822;28;20226;-71
2022/08/30 00:08:49;;;;;;;10.20;9.20;;;;;;;21.34;56.73;95079.75;5009467;28;20213;-71
2022/08/30 00:11:20;;;;;;;10.55;9.48;;;;;;;21.41;56.71;95087.75;5005003;28;20205;-71
2022/08/30 00:13:48;;;;;;;10.65;9.55;;;;;;;21.35;57.01;95090.22;5003614;28;20314;-72
2022/08/30 00:16:15;;;;;;;9.98;9.15;;;;;;;21.30;57.32;95091.91;5001988;28;20900;-71
2022/08/30 00:18:41;;;;;;;10.88;9.27;;;;;;;21.33;57.07;95086.97;5001297;28;20223;-71
2022/08/30 00:21:08;;;;;;;10.45;9.45;;;;;;;21.27;57.50;95079.78;5007874;28;20218;-71
2022/08/30 00:23:33;;;;;;;11.48;9.90;;;;;;;21.29;57.72;95075.06;5004777;28;20265;-72
2022/08/30 00:25:59;;;;;;;10.75;9.65;;;;;;;21.29;57.79;95080.41;5007045;28;20658;-72
2022/08/30 00:28:25;;;;;;;11.77;10.30;;;;;;;21.26;58.18;95082.69;5005073;28;20223;-72
2022/08/30 00:30:51;;;;;;;10.98;9.98;;;;;;;21.18;58.37;95083.78;5009190;28;20288;-71
2022/08/30 00:33:16;;;;;;;11.48;10.50;;;;;;;21.17;58.40;95076.81;5005555;28;20230;-71
2022/08/30 00:35:43;;;;;;;11.48;10.38;;;;;;;21.16;58.39;95069.78;5011592;28;20213;-71
2022/08/30 00:38:10;;;;;;;12.15;10.48;;;;;;;21.18;58.53;95080.28;5008248;28;20265;-72
2022/08/30 00:40:37;;;;;;;11.57;10.48;;;;;;;21.14;58.57;95077.22;5007429;28;20258;-71
2022/08/30 00:43:05;;;;;;;11.43;10.27;;;;;;;21.21;58.48;95090.56;5008420;28;20645;-71
2022/08/30 00:45:36;;;;;;;11.40;10.20;;;;;;;21.21;58.77;95094.03;5003249;28;20238;-71
2022/08/30 00:48:03;;;;;;;11.52;10.38;;;;;;;21.17;58.83;95087.50;5008389;28;20261;-71
2022/08/30 00:50:36;;;;;;;11.73;10.63;;;;;;;21.09;59.30;95087.72;5020894;28;20199;-72
2022/08/30 00:53:08;;;;;;;11.65;10.50;;;;;;;20.98;59.77;95089.22;5006002;28;20245;-71
2022/08/30 00:55:34;;;;;;;10.73;9.82;;;;;;;21.07;59.67;95090.63;5004548;28;20231;-72
2022/08/30 00:58:03;;;;;;;10.57;9.52;;;;;;;21.04;59.90;95092.94;5010186;28;20234;-73
2022/08/30 01:00:29;;;;;;;11.35;10.40;;;;;;;21.07;59.89;95098.66;5011577;28;20238;-71
2022/08/30 01:02:54;;;;;;;10.75;9.45;;;;;;;21.14;58.81;95088.75;5011817;28;20242;-71
2022/08/30 01:05:20;;;;;;;9.38;8.55;;;;;;;21.14;58.15;95096.78;5012550;28;20251;-72
2022/08/30 01:07:46;;;;;;;10.50;9.50;;;;;;;21.11;57.75;95091.81;5008395;28;20872;-71
2022/08/30 01:10:13;;;;;;;9.73;8.82;;;;;;;21.14;57.84;95085.22;5016268;28;20254;-71
2022/08/30 01:12:40;;;;;;;9.90;9.10;;;;;;;21.14;57.83;95077.22;5011127;28;20218;-71
2022/08/30 01:15:07;;;;;;;9.55;8.65;;;;;;;21.04;58.38;95079.56;5009466;28;20235;-71
2022/08/30 01:17:33;;;;;;;10.45;9.52;;;;;;;20.92;58.86;95074.06;5016655;28;20260;-72
2022/08/30 01:20:03;;;;;;;11.50;10.00;;;;;;;20.93;59.23;95078.41;5011947;28;20223;-72
2022/08/30 01:22:44;;;;;;;13.73;9.40;;;;;;;20.84;59.45;95077.00;5011761;28;20227;-72
2022/08/30 01:25:10;;;;;;;10.27;9.27;;;;;;;20.84;59.49;95077.00;5014361;28;20245;-71
2022/08/30 01:27:43;;;;;;;11.75;9.90;;;;;;;20.89;58.96;95074.50;5010179;28;20309;-71
2022/08/30 01:30:09;;;;;;;10.48;9.27;;;;;;;20.85;59.47;95071.44;5011410;28;20222;-71
2022/08/30 01:32:45;;;;;;;10.80;9.90;;;;;;;20.72;60.14;95068.03;5011832;28;20345;-72
2022/08/30 01:35:14;;;;;;;12.10;11.10;;;;;;;20.71;60.22;95067.19;5012112;28;20234;-72
2022/08/30 01:37:39;;;;;;;11.82;10.73;;;;;;;20.75;60.56;95073.75;5006618;28;20482;-71
2022/08/30 01:40:07;;;;;;;12.98;10.55;;;;;;;20.70;60.97;95085.06;5010972;28;20222;-71
2022/08/30 01:42:32;;;;;;;11.77;10.60;;;;;;;20.62;61.54;95077.31;5010848;28;20227;-71
2022/08/30 01:44:58;;;;;;;13.65;12.30;;;;;;;20.55;61.75;95081.84;5010454;28;20211;-71
2022/08/30 01:47:23;;;;;;;13.57;12.00;;;;;;;20.56;61.80;95077.34;5006018;28;20206;-72
2022/08/30 01:49:49;;;;;;;14.52;13.15;;;;;;;20.58;61.98;95081.44;5010254;28;20226;-71
2022/08/30 01:52:16;;;;;;;15.57;14.07;;;;;;;20.68;61.83;95068.44;5009749;28;20219;-72
2022/08/30 01:54:43;;;;;;;14.75;13.25;;;;;;;20.58;62.38;95068.09;5008735;28;20227;-71
2022/08/30 01:57:12;;;;;;;17.70;14.10;;;;;;;20.52;62.89;95068.06;5011864;28;20233;-71
2022/08/30 01:59:40;;;;;;;15.85;14.18;;;;;;;20.51;62.72;95069.94;5009165;28;20211;-72
2022/08/30 02:02:05;;;;;;;14.80;13.50;;;;;;;20.64;62.96;95072.56;5010300;28;20219;-72
2022/08/30 02:04:31;;;;;;;14.98;13.63;;;;;;;20.37;63.22;95061.16;5012569;28;20245;-71
2022/08/30 02:06:57;;;;;;;15.48;13.88;;;;;;;20.34;63.49;95060.75;5003326;28;20265;-72
2022/08/30 02:09:22;;;;;;;14.45;13.20;;;;;;;20.40;63.28;95058.06;5004693;28;20219;-71
2022/08/30 02:11:48;;;;;;;15.98;12.95;;;;;;;20.38;63.18;95060.13;5008117;28;20202;-71
2022/08/30 02:14:14;;;;;;;13.68;12.40;;;;;;;20.35;63.30;95060.53;5006362;28;20933;-71
2022/08/30 02:16:40;;;;;;;12.65;11.63;;;;;;;20.30;63.16;95060.34;5007159;28;20346;-71
2022/08/30 02:19:05;;;;;;;13.55;12.45;;;;;;;20.32;63.10;95052.97;5005495;28;20323;-72
2022/08/30 02:21:31;;;;;;;13.63;12.38;;;;;;;20.30;63.00;95055.00;5007282;28;20730;-71
2022/08/30 02:23:57;;;;;;;13.82;12.43;;;;;;;20.28;63.09;95049.88;5013120;28;20313;-71
2022/08/30 02:26:23;;;;;;;13.00;11.75;;;;;;;20.24;63.12;95045.19;5000836;28;20207;-71
2022/08/30 02:28:50;;;;;;;12.95;11.80;;;;;;;20.27;63.18;95052.78;5005275;28;20231;-71
2022/08/30 02:31:16;;;;;;;12.65;11.40;;;;;;;20.31;62.81;95056.63;5005335;28;20233;-72
2022/08/30 02:33:42;;;;;;;11.68;10.68;;;;;;;20.26;62.47;95057.28;5008649;28;20313;-72
2022/08/30 02:36:07;;;;;;;12.02;11.02;;;;;;;20.19;62.89;95048.47;5010540;28;20276;-71
2022/08/30 02:38:33;;;;;;;12.30;11.27;;;;;;;20.19;63.33;95058.34;5011179;28;20269;-71
2022/08/30 02:40:59;;;;;;;13.25;12.00;;;;;;;20.05;63.81;95047.69;5013176;28;20233;-72
2022/08/30 02:43:25;;;;;;;14.90;12.77;;;;;;;20.17;63.61;95055.88;5014476;28;20226;-72
2022/08/30 02:45:51;;;;;;;13.45;12.27;;;;;;;20.17;63.72;95047.84;5012041;28;20226;-71
2022/08/30 02:48:18;;;;;;;14.45;13.13;;;;;;;20.32;63.33;95046.81;5012378;28;20281;-71
2022/08/30 02:50:46;;;;;;;13.55;12.35;;;;;;;20.20;63.78;95043.94;5006366;28;20553;-72
2022/08/30 02:53:12;;;;;;;14.52;13.27;;;;;;;20.16;63.80;95042.75;5008425;28;20234;-71
2022/08/30 02:55:38;;;;;;;16.00;14.07;;;;;;;20.03;64.35;95040.94;5010035;28;20231;-71
2022/08/30 02:58:04;;;;;;;15.13;13.77;;;;;;;19.59;66.13;95045.06;5012592;28;20268;-71
2022/08/30 03:00:30;;;;;;;15.70;13.13;;;;;;;19.20;67.71;95041.41;5007910;28;20219;-71
2022/08/30 03:02:56;;;;;;;14.48;13.18;;;;;;;19.37;67.28;95044.47;5008252;28;20274;-71
2022/08/30 03:05:21;;;;;;;15.48;14.07;;;;;;;19.50;67.30;95049.00;5013785;28;20639;-71
2022/08/30 03:07:47;;;;;;;15.02;13.73;;;;;;;19.61;66.52;95057.19;5012423;28;20338;-71
2022/08/30 03:10:14;;;;;;;15.77;14.15;;;;;;;19.54;66.69;95053.72;5009987;28;20261;-72
2022/08/30 03:12:40;;;;;;;15.65;14.13;;;;;;;19.48;66.98;95056.38;5000490;28;20306;-71
2022/08/30 03:15:08;;;;;;;14.80;13.50;;;;;;;19.19;67.88;95061.06;5004514;28;20226;-71
2022/08/30 03:17:33;;;;;;;14.95;13.50;;;;;;;19.50;67.17;95054.31;5011180;28;20245;-71
2022/08/30 03:20:00;;;;;;;16.67;14.30;;;;;;;19.29;67.31;95058.00;5009326;28;20318;-71
2022/08/30 03:22:27;;;;;;;15.40;13.77;;;;;;;19.65;66.38;95060.28;5007989;28;20250;-71
2022/08/30 03:24:56;;;;;;;15.48;14.23;;;;;;;19.80;65.45;95057.41;5008221;28;20222;-72
2022/08/30 03:27:22;;;;;;;14.68;13.32;;;;;;;19.78;65.28;95068.28;5005907;28;20218;-71
2022/08/30 03:29:47;;;;;;;15.85;14.27;;;;;;;19.59;66.25;95061.91;5010527;28;20225;-71
2022/08/30 03:32:13;;;;;;;16.17;14.77;;;;;;;19.58;66.61;95062.13;5015299;28;20206;-72
2022/08/30 03:34:38;;;;;;;15.38;13.50;;;;;;;19.74;65.75;95061.72;5008339;28;20222;-71
2022/08/30 03:37:04;;;;;;;16.35;14.63;;;;;;;19.87;65.04;95060.88;5013200;28;20219;-71
2022/08/30 03:39:30;;;;;;;15.95;14.40;;;;;;;19.59;66.12;95061.06;5010011;28;20214;-71
2022/08/30 03:41:55;;;;;;;15.20;13.75;;;;;;;19.78;65.30;95057.63;5005561;28;20219;-71
2022/08/30 03:44:21;;;;;;;15.75;14.30;;;;;;;19.90;64.81;95064.97;5009076;28;20202;-70
2022/08/30 03:46:46;;;;;;;17.67;14.13;;;;;;;19.95;64.46;95063.31;5008582;28;20555;-71
2022/08/30 03:49:12;;;;;;;16.05;14.45;;;;;;;19.94;64.54;95064.38;5008354;28;20225;-71
2022/08/30 03:51:37;;;;;;;15.00;13.73;;;;;;;19.95;64.52;95057.19;5008374;28;20233;-71
2022/08/30 03:54:03;;;;;;;15.20;13.85;;;;;;;19.92;64.54;95063.75;5003842;28;20211;-70
2022/08/30 03:56:29;;;;;;;15.20;13.90;;;;;;;19.85;64.84;95059.44;5010308;28;20268;-71
2022/08/30 03:58:54;;;;;;;16.10;14.70;;;;;;;19.80;64.89;95066.22;5007486;28;20233;-72
2022/08/30 04:01:19;;;;;;;16.80;15.30;;;;;;;19.82;64.78;95066.84;5006465;28;20226;-72
2022/08/30 04:03:45;;;;;;;16.70;15.13;;;;;;;19.60;65.69;95068.06;5008631;28;20223;-71
2022/08/30 04:06:10;;;;;;;14.73;13.32;;;;;;;19.61;65.79;95064.38;5007412;28;20224;-71
2022/08/30 04:08:37;;;;;;;17.50;15.15;;;;;;;19.80;64.98;95068.88;5009419;28;20210;-71
2022/08/30 04:11:03;;;;;;;15.70;14.20;;;;;;;19.79;64.53;95069.91;5011686;28;20300;-71
2022/08/30 04:13:28;;;;;;;15.45;14.10;;;;;;;19.80;64.34;95076.88;5009435;28;20317;-71
2022/08/30 04:15:54;;;;;;;15.88;14.27;;;;;;;19.75;64.52;95074.03;5004294;28;20282;-71
2022/08/30 04:18:20;;;;;;;15.15;13.68;;;;;;;19.82;64.59;95074.84;5007313;28;20223;-71
2022/08/30 04:20:46;;;;;;;14.68;13.13;;;;;;;19.76;64.58;95075.69;5006710;28;20207;-71
2022/08/30 04:23:12;;;;;;;15.40;13.80;;;;;;;19.67;65.11;95081.41;5010107;28;20221;-71
2022/08/30 04:25:39;;;;;;;15.45;14.15;;;;;;;19.68;64.82;95077.75;5006132;28;20218;-71
2022/08/30 04:28:05;;;;;;;14.82;13.40;;;;;;;19.80;64.71;95078.75;5020396;28;20218;-71
2022/08/30 04:30:31;;;;;;;16.70;14.48;;;;;;;19.75;64.59;95079.38;5013058;28;20238;-71
2022/08/30 04:32:57;;;;;;;15.73;14.23;;;;;;;19.63;64.98;95081.00;5010929;28;20199;-71
2022/08/30 04:35:22;;;;;;;16.20;14.32;;;;;;;19.68;64.92;95080.41;5012076;28;20206;-71
2022/08/30 04:37:48;;;;;;;14.48;12.98;;;;;;;19.81;64.61;95086.56;5004276;28;20376;-71
2022/08/30 04:40:14;;;;;;;14.35;12.98;;;;;;;19.98;63.99;95084.25;5012213;28;20227;-71
2022/08/30 04:42:41;;;;;;;14.27;12.98;;;;;;;20.01;63.95;95091.03;5008134;28;20310;-72
2022/08/30 04:45:11;;;;;;;15.80;14.25;;;;;;;19.99;64.09;95085.06;4993716;28;20226;-70
2022/08/30 04:47:37;;;;;;;15.10;13.57;;;;;;;19.93;64.10;95094.72;5009180;28;20208;-70
2022/08/30 04:50:04;;;;;;;15.13;13.65;;;;;;;19.76;65.02;95101.53;4990233;28;20227;-71
2022/08/30 04:52:30;;;;;;;15.55;14.05;;;;;;;19.79;65.45;95096.59;5009521;28;20308;-71
2022/08/30 04:54:56;;;;;;;16.65;14.93;;;;;;;19.90;65.18;95105.00;5006865;28;20475;-70
2022/08/30 04:57:23;;;;;;;16.95;15.23;;;;;;;19.87;65.45;95100.09;5009700;28;20223;-71
2022/08/30 04:59:48;;;;;;;16.17;14.82;;;;;;;19.93;65.25;95112.59;5010689;28;20211;-70
2022/08/30 05:02:14;;;;;;;18.02;15.98;;;;;;;19.93;65.47;95109.94;5009678;28;20276;-70
2022/08/30 05:05:38;;;;;;;16.73;15.07;;;;;;;19.87;65.88;95110.78;5009263;28;20241;-70
2022/08/30 05:07:29;;;;;;;16.35;14.95;;;;;;;19.81;66.14;95115.91;5009254;28;20302;-70
2022/08/30 05:09:54;;;;;;;17.02;15.40;;;;;;;19.89;65.96;95112.19;5008420;28;20227;-71
2022/08/30 05:12:20;;;;;;;15.73;14.23;;;;;;;19.97;65.83;95109.31;5009638;28;20227;-71
2022/08/30 05:14:45;;;;;;;17.42;15.70;;;;;;;19.99;65.57;95122.44;5012153;28;20727;-71
2022/08/30 05:17:10;;;;;;;16.63;14.93;;;;;;;19.97;65.58;95120.00;5010415;28;20243;-71
2022/08/30 05:19:36;;;;;;;17.58;15.80;;;;;;;19.92;65.94;95110.97;5012716;28;20221;-70
2022/08/30 05:22:02;;;;;;;16.05;14.43;;;;;;;19.89;65.99;95116.69;5009490;28;21693;-70
2022/08/30 05:24:27;;;;;;;15.52;14.02;;;;;;;19.90;65.92;95121.03;5009481;28;20320;-70
2022/08/30 05:26:53;;;;;;;15.40;14.05;;;;;;;19.87;65.93;95118.78;5013839;28;20735;-71
2022/08/30 05:29:19;;;;;;;16.63;15.02;;;;;;;19.62;66.82;95114.03;5007420;28;20298;-70
2022/08/30 05:31:44;;;;;;;17.50;15.70;;;;;;;19.81;66.48;95118.56;5009218;28;20357;-70
2022/08/30 05:34:10;;;;;;;17.73;16.20;;;;;;;19.86;66.34;95125.13;5010998;28;20266;-70
2022/08/30 05:36:37;;;;;;;16.33;14.77;;;;;;;19.85;66.44;95120.81;5012527;28;20254;-70
2022/08/30 05:39:04;;;;;;;16.27;14.80;;;;;;;19.82;66.54;95122.06;5023750;28;20260;-71
2022/08/30 05:41:30;;;;;;;16.38;14.90;;;;;;;19.72;66.82;95111.78;5007501;28;20529;-70
2022/08/30 05:43:58;;;;;;;17.98;16.17;;;;;;;19.86;66.59;95119.78;5008747;28;20237;-71
2022/08/30 05:46:24;;;;;;;18.02;15.85;;;;;;;19.94;66.21;95127.56;5011297;28;20216;-70
2022/08/30 05:48:50;;;;;;;16.73;15.13;;;;;;;20.00;66.19;95118.75;5008411;28;20231;-71
2022/08/30 05:51:19;;;;;;;16.90;15.20;;;;;;;20.04;65.68;95112.78;5019130;28;20282;-71
2022/08/30 05:53:47;;;;;;;18.02;16.25;;;;;;;19.96;66.22;95115.66;5008630;28;20198;-71
2022/08/30 05:56:16;;;;;;;16.77;15.27;;;;;;;19.95;66.67;95116.69;5008503;28;20248;-71
2022/08/30 05:58:42;;;;;;;18.65;16.88;;;;;;;20.19;66.99;95122.41;5006050;28;20247;-71
2022/08/30 06:01:20;;;;;;;20.48;18.45;;;;;;;20.08;68.62;95118.53;5004746;28;20222;-70
2022/08/30 06:03:46;;;;;;;24.05;18.90;;;;;;;20.13;68.31;95121.41;5003375;28;20256;-70
2022/08/30 06:06:12;;;;;;;22.27;19.80;;;;;;;20.13;69.77;95118.72;5009981;28;20290;-70
2022/08/30 06:08:37;;;;;;;21.15;18.98;;;;;;;20.18;69.16;95121.59;5009725;28;20645;-70
2022/08/30 06:11:03;;;;;;;21.25;19.15;;;;;;;20.35;68.79;95116.63;5013056;28;20230;-70
2022/08/30 06:13:28;;;;;;;22.27;20.15;;;;;;;20.12;71.65;95126.94;5008045;28;20739;-68
2022/08/30 06:15:54;;;;;;;22.45;20.23;;;;;;;19.92;72.41;95122.47;5011629;28;20234;-69
2022/08/30 06:18:19;;;;;;;22.58;20.27;;;;;;;20.01;72.20;95125.72;5008838;28;20561;-69
2022/08/30 06:20:47;;;;;;;22.42;20.30;;;;;;;20.16;72.71;95128.19;5009058;28;20222;-70
2022/08/30 06:23:13;;;;;;;22.55;20.35;;;;;;;20.03;72.44;95129.00;5009072;28;20281;-69
2022/08/30 06:25:39;;;;;;;22.80;20.40;;;;;;;19.96;74.39;95133.53;5010290;28;20223;-70
2022/08/30 06:28:05;;;;;;;20.98;19.17;;;;;;;20.10;71.87;95147.69;5006816;28;20218;-69
2022/08/30 06:30:32;;;;;;;22.40;20.08;;;;;;;19.99;71.93;95149.97;5009091;28;20937;-69
2022/08/30 06:32:58;;;;;;;23.00;20.73;;;;;;;20.44;71.50;95149.25;5007713;28;20207;-69
2022/08/30 06:35:25;;;;;;;23.60;21.42;;;;;;;20.60;71.04;95140.00;5005712;28;20601;-72
2022/08/30 06:37:50;;;;;;;23.42;21.33;;;;;;;20.82;69.48;95148.53;5000919;28;20227;-72
2022/08/30 06:40:18;;;;;;;23.17;20.98;;;;;;;20.91;69.73;95147.28;5004536;28;20303;-71
2022/08/30 06:42:44;;;;;;;21.58;19.73;;;;;;;20.95;69.04;95148.47;5003328;28;20222;-71
2022/08/30 06:45:09;;;;;;;22.30;20.05;;;;;;;20.97;68.57;95149.09;5002527;28;20213;-71
2022/08/30 06:47:35;;;;;;;21.50;19.70;;;;;;;21.00;68.05;95151.34;4999593;28;20190;-70
2022/08/30 06:50:00;;;;;;;20.58;18.88;;;;;;;21.19;67.11;95154.13;5001651;28;20224;-72
2022/08/30 06:52:26;;;;;;;20.83;18.73;;;;;;;21.06;67.02;95160.34;5002664;28;20234;-70
2022/08/30 06:54:53;;;;;;;20.63;18.70;;;;;;;21.18;67.27;95157.84;5003831;28;20722;-70
2022/08/30 06:57:19;;;;;;;18.45;16.63;;;;;;;21.21;64.54;95152.06;4995848;28;20245;-74
2022/08/30 06:59:44;;;;;;;17.80;16.20;;;;;;;20.98;65.80;95156.06;5005253;28;20202;-72
2022/08/30 07:02:09;;;;;;;17.98;16.40;;;;;;;21.25;65.49;95153.25;5001366;28;20237;-71
2022/08/30 07:04:35;;;;;;;19.80;17.73;;;;;;;21.50;64.46;95158.69;5005580;28;20298;-70
2022/08/30 07:07:00;;;;;;;18.35;16.85;;;;;;;21.54;64.00;95160.72;5004749;28;20723;-71
2022/08/30 07:09:26;;;;;;;20.40;18.60;;;;;;;21.46;64.08;95158.28;5006375;28;20231;-70
2022/08/30 07:11:52;;;;;;;20.27;18.45;;;;;;;21.46;63.87;95160.97;5002717;28;20215;-69
2022/08/30 07:14:18;;;;;;;21.00;19.10;;;;;;;21.35;65.26;95161.63;5005373;28;20223;-72
2022/08/30 07:16:44;;;;;;;22.35;20.27;;;;;;;20.94;65.84;95162.88;5004192;28;20250;-72
2022/08/30 07:19:10;;;;;;;19.67;17.88;;;;;;;21.26;64.57;95160.25;5006771;28;20325;-69
2022/08/30 07:21:42;;;;;;;22.15;20.08;;;;;;;21.35;64.77;95158.94;5004539;28;20276;-70
2022/08/30 07:24:09;;;;;;;21.77;19.55;;;;;;;20.83;68.26;95163.56;5007490;28;20199;-69
2022/08/30 07:26:40;;;;;;;21.67;19.73;;;;;;;21.30;66.95;95164.13;5006827;28;20203;-69
2022/08/30 07:29:07;;;;;;;23.08;20.48;;;;;;;21.06;67.86;95158.53;5004713;28;20845;-69
2022/08/30 07:31:34;;;;;;;21.88;19.63;;;;;;;21.18;66.13;95168.53;5010009;28;20240;-69
2022/08/30 07:34:01;;;;;;;22.48;20.48;;;;;;;21.32;66.60;95173.56;5007798;28;20314;-71
2022/08/30 07:36:27;;;;;;;23.33;21.20;;;;;;;21.41;66.67;95168.84;5009403;28;21119;-69
2022/08/30 07:38:53;;;;;;;22.90;20.77;;;;;;;21.34;66.82;95163.50;5010499;28;20297;-70
2022/08/30 07:41:31;;;;;;;22.48;20.42;;;;;;;21.29;67.19;95167.84;5006469;28;20306;-71
2022/08/30 07:43:56;;;;;;;22.35;20.13;;;;;;;21.35;66.22;95164.31;5006018;28;20238;-68
2022/08/30 07:46:23;;;;;;;20.88;18.90;;;;;;;21.35;65.91;95162.44;5008971;28;20210;-69
2022/08/30 07:48:48;;;;;;;20.63;18.60;;;;;;;21.47;65.56;95176.00;5005939;28;20243;-71
2022/08/30 07:51:18;;;;;;;21.33;19.42;;;;;;;21.47;66.40;95173.31;5012759;28;20290;-71
2022/08/30 07:53:43;;;;;;;21.55;19.65;;;;;;;21.49;65.62;95179.28;5005993;28;20218;-70
2022/08/30 07:56:09;;;;;;;21.38;19.48;;;;;;;21.55;65.56;95175.75;5008264;28;20703;-66
2022/08/30 07:58:36;;;;;;;20.92;18.75;;;;;;;21.55;65.73;95174.94;5007549;28;20231;-66
2022/08/30 08:01:04;;;;;;;19.77;17.80;;;;;;;21.61;65.67;95184.75;5008771;28;20280;-65
2022/08/30 08:03:29;;;;;;;20.17;18.42;;;;;;;21.59;65.09;95182.28;5006914;28;20215;-64
2022/08/30 08:05:56;;;;;;;20.50;18.58;;;;;;;21.57;65.34;95180.84;5001390;28;20350;-64
2022/08/30 08:08:23;;;;;;;22.67;20.55;;;;;;;21.53;65.94;95174.31;5009944;28;20225;-66
2022/08/30 08:10:49;;;;;;;20.15;17.88;;;;;;;21.61;65.15;95184.75;5007513;28;20297;-65
2022/08/30 08:13:14;;;;;;;20.98;18.92;;;;;;;21.68;64.80;95182.03;5010453;28;20222;-65
2022/08/30 08:15:40;;;;;;;21.63;19.58;;;;;;;21.69;65.37;95181.00;5010680;28;20435;-65
2022/08/30 08:18:05;;;;;;;22.02;19.70;;;;;;;21.83;64.08;95185.22;5009545;28;20623;-67
2022/08/30 08:20:33;;;;;;;21.70;19.63;;;;;;;21.84;64.78;95188.69;5006765;28;20537;-67
2022/08/30 08:22:58;;;;;;;21.63;19.40;;;;;;;21.84;64.65;95188.69;5009963;28;20215;-69
2022/08/30 08:25:24;;;;;;;23.13;20.73;;;;;;;21.90;64.35;95188.66;5008370;28;20215;-72
2022/08/30 08:27:50;;;;;;;21.02;19.13;;;;;;;21.78;64.46;95187.72;4998654;28;20253;-70
2022/08/30 08:30:18;;;;;;;23.55;21.15;;;;;;;21.84;65.84;95188.69;5008611;28;20269;-72
2022/08/30 08:32:44;;;;;;;24.20;21.75;;;;;;;21.86;65.19;95192.00;4989404;28;20250;-70
2022/08/30 08:35:11;;;;;;;22.00;20.02;;;;;;;21.81;64.61;95187.28;5012794;28;20210;-70
2022/08/30 08:37:37;;;;;;;23.77;21.55;;;;;;;21.75;64.87;95185.47;4999450;28;20214;-70
2022/08/30 08:40:04;;;;;;;22.45;20.52;;;;;;;21.67;64.70;95177.72;5011486;28;20222;-71
2022/08/30 08:43:02;;;;;;;23.17;20.98;;;;;;;21.82;64.65;95185.44;5006251;28;20226;-69
2022/08/30 08:45:39;;;;;;;22.85;20.58;;;;;;;21.83;64.63;95187.06;4967367;28;20235;-70
2022/08/30 08:48:30;;;;;;;23.52;21.20;;;;;;;21.89;64.58;95180.84;4962561;28;20235;-69
2022/08/30 08:53:46;;;;;;;23.65;21.50;;;;;;;22.06;63.69;95181.94;4962035;28;20771;-69
2022/08/30 08:56:14;;;;;;;24.25;21.95;;;;;;;22.14;64.36;95179.00;4946688;28;20220;-68
2022/08/30 08:58:44;;;;;;;25.25;22.85;;;;;;;22.16;65.29;95181.44;4951117;28;20784;-69
2022/08/30 09:01:14;;;;;;;24.25;21.98;;;;;;;22.27;64.95;95188.81;4965272;28;20256;-69
2022/08/30 09:03:39;;;;;;;22.80;20.60;;;;;;;22.22;65.14;95185.97;4948134;28;20255;-69
2022/08/30 09:06:44;;;;;;;22.10;19.83;;;;;;;22.33;63.98;95179.88;4967037;28;20224;-69
2022/08/30 09:09:10;;;;;;;22.98;20.92;;;;;;;22.52;64.20;95178.03;4953841;28;20556;-69
2022/08/30 09:11:36;;;;;;;22.65;20.60;;;;;;;22.70;63.99;95174.56;4947882;28;20231;-68
2022/08/30 09:14:09;;;;;;;23.63;21.42;;;;;;;22.68;65.42;95173.94;4946403;28;20228;-64
2022/08/30 09:16:46;;;;;;;21.50;19.67;;;;;;;22.54;66.28;95177.81;4952319;28;20228;-67
2022/08/30 09:19:25;;;;;;;22.05;20.08;;;;;;;22.86;64.38;95173.13;4968045;28;20220;-68
2022/08/30 09:22:00;;;;;;;23.60;21.42;;;;;;;23.12;64.87;95180.03;4984393;28;20230;-68
2022/08/30 09:24:25;;;;;;;23.23;21.13;;;;;;;23.40;64.80;95175.97;5008254;28;20218;-67
2022/08/30 09:26:51;;;;;;;24.77;22.38;;;;;;;23.37;64.58;95176.44;5009188;28;20281;-68
2022/08/30 09:29:18;;;;;;;27.92;25.33;;;;;;;23.63;65.79;95180.59;5003901;28;20199;-68
2022/08/30 09:31:52;;;;;;;24.50;22.10;;;;;;;23.69;63.56;95180.50;5009985;28;20246;-68
2022/08/30 09:34:21;;;;;;;19.75;17.85;;;;;;;23.58;59.74;95183.97;5010045;28;20264;-69
2022/08/30 09:36:51;;;;;;;19.27;17.48;;;;;;;23.70;60.15;95175.94;5008359;28;20230;-68
2022/08/30 09:39:32;;;;;;;19.83;18.00;;;;;;;24.43;60.18;95169.38;5012168;28;20227;-69
2022/08/30 09:42:22;;;;;;;18.20;16.48;;;;;;;24.72;57.11;95172.19;5006445;28;20337;-68
2022/08/30 09:44:48;;;;;;;19.02;17.13;;;;;;;24.65;55.81;95170.47;5006123;28;20317;-68
2022/08/30 09:47:26;;;;;;;19.10;17.27;;;;;;;25.04;54.84;95170.72;5009255;28;20289;-69
2022/08/30 09:50:04;;;;;;;16.45;14.95;;;;;;;25.22;54.59;95167.06;5007494;28;20301;-70
2022/08/30 09:52:57;;;;;;;16.08;14.48;;;;;;;24.58;53.88;95171.63;5013167;28;20231;-68
2022/08/30 09:55:36;;;;;;;20.58;15.45;;;;;;;24.58;53.74;95166.25;4973867;28;20224;-69
2022/08/30 09:58:04;;;;;;;16.75;14.75;;;;;;;24.61;53.82;95166.59;4963219;28;20317;-69
2022/08/30 10:00:39;;;;;;;17.45;15.77;;;;;;;25.06;52.64;95163.22;4970200;28;20258;-68
2022/08/30 10:03:23;;;;;;;18.70;16.50;;;;;;;25.23;51.54;95157.13;4976968;28;20277;-69
2022/08/30 10:06:05;;;;;;;17.15;15.45;;;;;;;25.43;51.30;95152.13;4955625;28;20229;-69
2022/08/30 10:09:17;;;;;;;19.23;16.90;;;;;;;25.34;52.21;95161.66;4955631;28;20224;-69
2022/08/30 10:11:59;;;;;;;18.95;16.02;;;;;;;25.43;51.98;95148.63;4882021;29;20225;-69
2022/08/30 10:14:56;;;;;;;17.63;15.82;;;;;;;25.01;52.61;95138.91;4886291;29;20241;-71
2022/08/30 10:17:53;;;;;;;18.10;16.52;;;;;;;24.69;54.25;95135.84;4858566;29;20926;-71
2022/08/30 10:21:12;;;;;;;17.42;15.50;;;;;;;25.75;49.48;95138.16;4856571;29;20231;-72
2022/08/30 10:23:46;;;;;;;18.20;16.38;;;;;;;26.04;50.21;95130.03;4815509;29;20225;-72
2022/08/30 10:26:14;;;;;;;17.23;15.35;;;;;;;26.10;49.82;95137.13;4824941;29;20225;-72
2022/08/30 10:28:51;;;;;;;15.90;14.40;;;;;;;25.58;50.44;95132.75;4804843;29;20233;-71
2022/08/30 10:31:41;;;;;;;16.60;14.85;;;;;;;26.29;48.93;95129.59;4804999;29;20629;-71
2022/08/30 10:34:15;;;;;;;17.90;16.10;;;;;;;26.80;49.10;95116.81;4806254;29;20240;-70
2022/08/30 10:36:51;;;;;;;16.38;14.98;;;;;;;27.12;48.56;95116.91;4813353;29;20253;-71
2022/08/30 10:39:23;;;;;;;16.55;14.88;;;;;;;27.58;46.30;95114.72;4802617;29;20205;-70
2022/08/30 10:41:57;;;;;;;14.63;13.35;;;;;;;28.06;45.84;95112.16;4817143;29;20227;-68
2022/08/30 10:44:30;;;;;;;15.98;14.40;;;;;;;28.48;43.68;95108.69;4816940;29;20227;-70
2022/08/30 10:47:13;;;;;;;16.17;14.48;;;;;;;28.34;42.43;95114.53;4827716;29;20220;-70
2022/08/30 10:49:43;;;;;;;16.88;13.75;;;;;;;27.90;44.88;95113.94;4813687;29;20263;-70
2022/08/30 10:52:39;;;;;;;13.32;12.13;;;;;;;28.30;43.64;95113.41;4832415;29;20233;-70
2022/08/30 10:55:27;;;;;;;15.00;13.07;;;;;;;28.48;43.62;95114.09;4901172;29;20233;-67
2022/08/30 10:58:01;;;;;;;16.13;14.57;;;;;;;26.63;45.19;95103.41;4984971;28;20231;-66
2022/08/30 11:00:40;;;;;;;16.45;14.05;;;;;;;27.60;44.81;95101.78;5009120;28;20222;-69
2022/08/30 11:03:25;;;;;;;17.75;13.57;;;;;;;28.23;44.17;95095.78;5009584;28;20215;-68
2022/08/30 11:06:05;;;;;;;17.40;12.60;;;;;;;28.50;44.08;95099.25;5005632;28;20864;-67
2022/08/30 11:08:44;;;;;;;13.98;12.40;;;;;;;29.16;42.46;95097.91;5007284;28;20234;-68
2022/08/30 11:11:19;;;;;;;14.77;12.18;;;;;;;29.43;40.98;95098.53;5008306;28;20234;-68
2022/08/30 11:13:46;;;;;;;14.45;11.65;;;;;;;29.23;40.64;95093.06;5009207;28;20313;-68
2022/08/30 11:16:15;;;;;;;15.32;13.30;;;;;;;28.96;40.92;95093.22;5006039;28;20319;-69
2022/08/30 11:18:45;;;;;;;15.70;12.73;;;;;;;28.86;41.22;95085.88;5004264;28;20223;-69
2022/08/30 11:21:37;;;;;;;12.98;11.63;;;;;;;28.87;40.84;95089.38;5005595;28;20338;-69
2022/08/30 11:24:04;;;;;;;14.50;11.25;;;;;;;29.21;40.47;95084.38;5024190;28;20249;-69
2022/08/30 11:26:48;;;;;;;14.82;11.98;;;;;;;28.99;39.63;95076.44;5001232;28;20257;-69
2022/08/30 11:29:43;;;;;;;16.58;12.57;;;;;;;29.07;39.86;95072.44;5005760;28;20248;-70
2022/08/30 11:32:12;;;;;;;17.50;11.43;;;;;;;29.37;36.98;95083.31;5005820;28;20231;-67